Tiempo atmosférico en la estación meteorológica de Tinajo, Las Palmas (275 m.)



Fecha
DESCASC
Temp. máxima en grados centígrados (hora)
DESCASC
Temp. mínima en grados centígrados (hora)
DESCASC
Temp. media en grados centígrados
DESCASC
Racha de viento máxima en m/sg (hora)
DESCASC
Velocidad máxima media en intervalos de 10 minutos(hora)
DESCASC
Precipitaciones diarias en mm
DESCASC
Precipitaciones de 00:00 a 06:00 en mm
DESCASC
Precipitaciones de 06:00 a 12:00 en mm
DESCASC
Precipitaciones de 12:00 a 18:00 en mm
DESCASC
Precipitaciones de 18:00 a 24:00 en mm
DESCASC
15-08-2019 24.2 (14:10) 19.2 (04:30) 21.7 13.89 (14:40) 9.17 (14:40) 0 0 0 0 0
14-08-2019 23.4 (14:40) 18.6 (00:00) 21 11.94 (15:40) 8.61 (14:10) 0 0 0 0 0
13-08-2019 22.2 (14:10) 18.3 (00:00) 20.3 15.28 (12:30) 10.83 (12:20) 0 0 0 0 0
12-08-2019 22.7 (14:40) 18.8 (00:00) 20.8 17.5 (11:00) 11.11 (10:50) 0 0 0 0 0
11-08-2019 23.4 (14:50) 19.1 (00:00) 21.3 16.11 (13:40) 11.11 (16:00) 0 0 0 0 0
10-08-2019 24.1 (16:10) 19.6 (00:00) 21.9 14.72 (23:00) 8.61 (22:50) 0 0 0 0 0
09-08-2019 24.8 (14:00) 18.7 (00:00) 21.8 10.28 (16:00) 7.22 (15:50) 0 0 0 0 0
08-08-2019 25.2 (13:50) 18.8 (00:00) 22 8.33 (01:00) 5.56 (16:30) 0 0 0 0 0
07-08-2019 23.7 (15:00) 19 (00:00) 21.4 12.22 (12:20) 7.78 (11:30) 0 0 0 0 0
06-08-2019 22.2 (15:00) 18.9 (00:00) 20.6 13.61 (23:59) 7.5 (01:30) 0 0 0 0 0
05-08-2019 22.5 (14:10) 19 (00:00) 20.8 13.61 (11:10) 9.44 (16:40) 0 0 0 0 0
04-08-2019 22.7 (15:30) 18.5 (00:00) 20.6 12.78 (15:20) 8.61 (15:40) 0 0 0 0 0
03-08-2019 22 (14:40) 18.2 (00:00) 20.1 13.06 (20:40) 8.06 (15:00) 0 0 0 0 0
02-08-2019 22.6 (14:50) 18.4 (00:00) 20.5 12.22 (18:00) 8.61 (17:10) 0 0 0 0 0
01-08-2019 22.8 (14:50) 18.1 (00:00) 20.4 11.39 (09:30) 8.06 (16:10) 0 0 0 0 0
31-07-2019 21.9 (16:00) 18 (00:00) 19.9 13.06 (12:20) 9.44 (12:10) 0 0 0 0 0
30-07-2019 21.8 (14:30) 18 (00:00) 19.9 14.17 (14:30) 9.72 (17:00) 0 0 0 0 0
29-07-2019 22.5 (15:30) 18.8 (00:00) 20.6 15 (16:40) 10 (12:40) 0 0 0 0 0
28-07-2019 21.8 (16:40) 18.7 (00:00) 20.3 13.33 (22:30) 9.72 (18:40) 0 0 0 0 0
27-07-2019 22.8 (14:50) 18.3 (00:00) 20.5 17.22 (04:40) 9.72 (12:30) 0 0 0 0 0
26-07-2019 23.9 (14:20) 19 (00:00) 21.4 17.78 (18:30) 11.67 (18:00) 0 0 0 0 0
25-07-2019 23.6 (13:20) 18.3 (00:00) 20.9 11.94 (16:00) 8.06 (15:10) 0 0 0 0 0
24-07-2019 22.4 (14:10) 18 (00:00) 20.2 12.5 (06:30) 7.78 (14:50) 0 0 0 0 0
23-07-2019 22.2 (15:00) 17.8 (00:00) 20 11.39 (16:40) 7.5 (18:40) 0 0 0 0 0
22-07-2019 21.9 (14:50) 18.1 (00:00) 20 11.11 (09:40) 7.5 (17:40) 0 0 0 0 0
21-07-2019 22.7 (15:20) 18.4 (00:00) 20.6 20.28 (12:40) 9.44 (12:50) 0 0 0 0 0
20-07-2019 22.1 (16:30) 17.7 (00:00) 19.9 12.5 (22:20) 8.33 (18:40) 0 0 0 0 0
19-07-2019 21.7 (13:40) 18.2 (00:00) 20 13.33 (22:40) 8.33 (18:30) 0 0 0 0 0

Gráficas

Temp. máximas Temp. mínimas Temp. medias Precipitaciones Rachas de viento máximas Velocidades máximas media en intervalos de 10 minutos

Datos horarios

Fecha y hora oficial Temperatura (ºC) Velocidad del viento (km/h) Dirección del viento Racha (km/h) Dirección de racha Precipitación (mm) Presión (hPa) Tendencia (hPa) Humedad (%)
2019-08-17 23:00:00 21.9 41 Norte 59 Norte 0 -- -- 74
2019-08-17 22:00:00 22.5 45 Nordeste 60 Nordeste 0 -- -- 68
2019-08-17 21:00:00 25.1 35 Nordeste 56 Norte 0 -- -- 53
2019-08-17 20:00:00 24.9 34 Nordeste 53 Nordeste 0 -- -- 57
2019-08-17 19:00:00 23.9 21 Norte 51 Nordeste 0 -- -- 69
2019-08-17 18:00:00 24.7 40 Nordeste 54 Nordeste 0 -- -- 69
2019-08-17 17:00:00 25.4 33 Nordeste 44 Nordeste 0 -- -- 68
2019-08-17 16:00:00 25.8 32 Nordeste 48 Norte 0 -- -- 66
2019-08-17 15:00:00 26.4 31 Nordeste 45 Nordeste 0 -- -- 64
2019-08-17 14:00:00 26.3 25 Nordeste 42 Norte 0 -- -- 63
2019-08-17 13:00:00 25.8 25 Nordeste 39 Nordeste 0 -- -- 63
2019-08-17 12:00:00 25.6 25 Nordeste 34 Nordeste 0 -- -- 65
2019-08-17 11:00:00 24 26 Nordeste 44 Nordeste 0 -- -- 71
2019-08-17 10:00:00 22.6 23 Nordeste 37 Nordeste 0 -- -- 79
2019-08-17 09:00:00 21.4 27 Nordeste 45 Nordeste 0 -- -- 83
2019-08-17 08:00:00 21.2 26 Nordeste 37 Nordeste 0 -- -- 83
2019-08-17 07:00:00 21.2 24 Nordeste 37 Nordeste 0 -- -- 82
2019-08-17 06:00:00 21.3 28 Nordeste 41 Nordeste 0 -- -- 83
2019-08-17 05:00:00 22.5 16 Nordeste 41 Norte 0 -- -- 72
2019-08-17 04:00:00 21.6 25 Nordeste 41 Norte 0 -- -- 80
2019-08-17 03:00:00 23.6 32 Nordeste 53 Nordeste 0 -- -- 65
2019-08-17 02:00:00 22.6 28 Norte 50 Nordeste 0 -- -- 69
2019-08-17 01:00:00 21.3 23 Norte 42 Nordeste 0 -- -- 85
2019-08-17 00:00:00 21.9 29 Nordeste 53 Norte 0 -- -- 81
2019-08-16 23:00:00 22.5 38 Nordeste 56 Nordeste 0 -- -- 73
2019-08-16 22:00:00 22.4 30 Nordeste 50 Nordeste 0 -- -- 76
2019-08-16 21:00:00 22.4 39 Nordeste 48 Nordeste 0 -- -- 78
2019-08-16 20:00:00 22.7 20 Nordeste 38 Nordeste 0 -- -- 78
2019-08-16 19:00:00 24.3 13 Nordeste 33 Nordeste 0 -- -- 76
2019-08-16 18:00:00 24.3 26 Norte 36 Norte 0 -- -- 74
2019-08-16 17:00:00 25.4 16 Nordeste 40 Nordeste 0 -- -- 66
2019-08-16 16:00:00 25 24 Nordeste 32 Nordeste 0 -- -- 70
2019-08-16 15:00:00 25.9 20 Nordeste 35 Nordeste 0 -- -- 63
2019-08-16 14:00:00 25.6 27 Nordeste 41 Nordeste 0 -- -- 63
2019-08-16 13:00:00 25.2 22 Este 48 Nordeste 0 -- -- 64
2019-08-16 12:00:00 24.7 32 Nordeste 45 Nordeste 0 -- -- 60
2019-08-16 11:00:00 23.7 26 Nordeste 39 Nordeste 0 -- -- 70
2019-08-16 10:00:00 22.2 22 Nordeste 29 Norte 0 -- -- 80
2019-08-16 09:00:00 20.6 10 Norte 19 Sudoeste 0 -- -- 91
2019-08-16 08:00:00 19.9 20 Nordeste 36 Norte 0 -- -- 96
2019-08-16 07:00:00 19.8 18 Norte 36 Norte 0 -- -- 96
2019-08-16 06:00:00 19.8 14 Norte 31 Norte 0 -- -- 96
2019-08-16 05:00:00 19.8 19 Norte 33 Norte 0 -- -- 96
2019-08-16 04:00:00 19.8 16 Norte 33 Norte 0 -- -- 96
2019-08-16 03:00:00 19.9 27 Norte 37 Norte 0 -- -- 96
2019-08-16 02:00:00 19.8 22 Nordeste 33 Nordeste 0 -- -- 95
2019-08-16 01:00:00 19.9 17 Nordeste 35 Norte 0 -- -- 94
2019-08-16 00:00:00 20 19 Nordeste 38 Nordeste 0 -- -- 94
2019-08-15 23:00:00 20 19 Norte 34 Nordeste 0 -- -- 94
2019-08-15 22:00:00 20.1 21 Norte 33 Norte 0 -- -- 93
2019-08-15 21:00:00 20.3 21 Norte 31 Norte 0 -- -- 93
2019-08-15 20:00:00 21 21 Norte 33 Nordeste 0 -- -- 88
2019-08-15 19:00:00 22 25 Norte 38 Norte 0 -- -- 82
2019-08-15 18:00:00 22.8 24 Norte 38 Norte 0 -- -- 79
2019-08-15 17:00:00 22.7 26 Norte 40 Nordeste 0 -- -- 80
2019-08-15 16:00:00 23.2 27 Norte 44 Norte 0 -- -- 80
2019-08-15 15:00:00 23.9 30 Norte 50 Norte 0 -- -- 75
2019-08-15 14:00:00 23.7 29 Nordeste 43 Norte 0 -- -- 73
2019-08-15 13:00:00 22.8 30 Nordeste 47 Norte 0 -- -- 77
2019-08-15 12:00:00 22.3 29 Norte 44 Norte 0 -- -- 78
2019-08-15 11:00:00 21.7 24 Nordeste 41 Norte 0 -- -- 81
2019-08-15 10:00:00 20.5 24 Nordeste 38 Nordeste 0 -- -- 87
2019-08-15 09:00:00 19.7 23 Nordeste 38 Norte 0 -- -- 92
2019-08-15 08:00:00 19.4 22 Norte 33 Norte 0 -- -- 95
2019-08-15 07:00:00 19.4 21 Norte 40 Norte 0 -- -- 95
2019-08-15 06:00:00 19.3 24 Norte 37 Norte 0 -- -- 95
2019-08-15 05:00:00 19.3 22 Norte 35 Norte 0 -- -- 94
2019-08-15 04:00:00 19.3 22 Norte 33 Norte 0 -- -- 94
2019-08-15 03:00:00 19.4 20 Norte 30 Norte 0 -- -- 94
2019-08-15 02:00:00 19.5 18 Norte 31 Norte 0 -- -- 93
2019-08-15 01:00:00 19.5 20 Norte 34 Norte 0 -- -- 93
2019-08-15 00:00:00 19.6 22 Norte 32 Norte 0 -- -- 93
2019-08-14 23:00:00 19.7 25 Norte 36 Norte 0 -- -- 92
2019-08-14 22:00:00 19.7 23 Norte 34 Norte 0 -- -- 91
2019-08-14 21:00:00 19.8 24 Norte 37 Norte 0 -- -- 90
2019-08-14 20:00:00 20.1 26 Norte 37 Norte 0 -- -- 88
2019-08-14 19:00:00 20.8 26 Norte 36 Norte 0 -- -- 86
2019-08-14 18:00:00 22.1 22 Norte 32 Norte 0 -- -- 80
2019-08-14 17:00:00 22.7 24 Norte 38 Norte 0 -- -- 76
2019-08-14 16:00:00 23.2 28 Norte 43 Norte 0 -- -- 71
2019-08-14 15:00:00 23.4 27 Norte 42 Nordeste 0 -- -- 70
2019-08-14 14:00:00 23.3 27 Norte 42 Nordeste 0 -- -- 72
2019-08-14 13:00:00 23.2 28 Norte 41 Norte 0 -- -- 70
2019-08-14 12:00:00 21.7 27 Norte 38 Norte 0 -- -- 78
2019-08-14 11:00:00 20.9 26 Norte 41 Norte 0 -- -- 81
2019-08-14 10:00:00 19.7 28 Norte 42 Nordeste 0 -- -- 87
2019-08-14 09:00:00 19.2 25 Norte 39 Nordeste 0 -- -- 91
2019-08-14 08:00:00 18.8 22 Norte 35 Norte 0 -- -- 94
2019-08-14 07:00:00 18.8 19 Norte 35 Norte 0 -- -- 94
2019-08-14 06:00:00 18.6 22 Norte 32 Norte 0 -- -- 93
2019-08-14 05:00:00 18.7 21 Norte 33 Norte 0 -- -- 92
2019-08-14 04:00:00 18.7 20 Norte 30 Norte 0 -- -- 92
2019-08-14 03:00:00 18.8 20 Norte 30 Norte 0 -- -- 91
2019-08-14 02:00:00 18.9 20 Norte 31 Norte 0 -- -- 90
2019-08-14 01:00:00 19 19 Norte 35 Nordeste 0 -- -- 90
2019-08-14 00:00:00 19 22 Nordeste 33 Norte 0 -- -- 89
2019-08-13 23:00:00 19.1 24 Norte 37 Norte 0 -- -- 88
2019-08-13 22:00:00 19.2 23 Norte 38 Norte 0 -- -- 87
2019-08-13 21:00:00 19.4 21 Norte 39 Norte 0 -- -- 87
2019-08-13 20:00:00 19.8 25 Norte 39 Norte 0 -- -- 84
2019-08-13 19:00:00 20.3 26 Norte 41 Norte 0 -- -- 81
2019-08-13 18:00:00 21 27 Norte 43 Nordeste 0 -- -- 77
2019-08-13 17:00:00 21.5 28 Norte 49 Norte 0 -- -- 74
2019-08-13 16:00:00 22 28 Nordeste 45 Norte 0 -- -- 71
2019-08-13 15:00:00 22.1 32 Norte 50 Norte 0 -- -- 70
2019-08-13 14:00:00 22 33 Nordeste 50 Nordeste 0 -- -- 70
2019-08-13 13:00:00 22 33 Norte 55 Norte 0 -- -- 71
2019-08-13 12:00:00 21.3 35 Norte 49 Nordeste 0 -- -- 73
2019-08-13 11:00:00 20.5 36 Norte 55 Nordeste 0 -- -- 77
2019-08-13 10:00:00 19.9 33 Norte 51 Nordeste 0 -- -- 80
2019-08-13 09:00:00 19.2 31 Norte 45 Nordeste 0 -- -- 84
2019-08-13 08:00:00 18.5 28 Nordeste 49 Nordeste 0 -- -- 87
2019-08-13 07:00:00 18.5 25 Norte 43 Norte 0 -- -- 89
2019-08-13 06:00:00 18.4 22 Norte 44 Norte 0 -- -- 89
2019-08-13 05:00:00 18.5 27 Nordeste 46 Nordeste 0 -- -- 88
2019-08-13 04:00:00 18.6 27 Norte 51 Nordeste 0 -- -- 88
2019-08-13 03:00:00 18.7 28 Norte 48 Norte 0 -- -- 88
2019-08-13 02:00:00 18.8 30 Norte 44 Norte 0 -- -- 89
2019-08-13 01:00:00 18.9 29 Norte 40 Norte 0 -- -- 88
2019-08-13 00:00:00 19 25 Norte 40 Norte 0 -- -- 89
2019-08-12 23:00:00 18.9 27 Norte 42 Norte 0 -- -- 88
2019-08-12 22:00:00 19.2 27 Norte 45 Norte 0 -- -- 87
2019-08-12 21:00:00 19.5 31 Norte 46 Norte 0 -- -- 85
2019-08-12 20:00:00 20 34 Norte 49 Norte 0 -- -- 81
2019-08-12 19:00:00 20.6 35 Norte 53 Norte 0 -- -- 79
2019-08-12 18:00:00 21.2 35 Norte 54 Norte 0 -- -- 77
2019-08-12 17:00:00 21.9 33 Norte 54 Norte 0 -- -- 74
2019-08-12 16:00:00 22.1 36 Norte 54 Norte 0 -- -- 72
2019-08-12 15:00:00 22.7 36 Norte 50 Norte 0 -- -- 68
2019-08-12 14:00:00 22.5 34 Norte 51 Norte 0 -- -- 69
2019-08-12 13:00:00 21.5 35 Norte 62 Norte 0 -- -- 74
2019-08-12 12:00:00 21.6 37 Nordeste 59 Norte 0 -- -- 72
2019-08-12 11:00:00 21.1 39 Nordeste 63 Nordeste 0 -- -- 74
2019-08-12 10:00:00 19.8 33 Norte 48 Nordeste 0 -- -- 83
2019-08-12 09:00:00 19.4 28 Norte 45 Norte 0 -- -- 87
2019-08-12 08:00:00 18.9 27 Nordeste 50 Norte 0 -- -- 89
2019-08-12 07:00:00 18.8 27 Norte 51 Norte 0 -- -- 90
2019-08-12 06:00:00 18.9 28 Nordeste 51 Norte 0 -- -- 90
2019-08-12 05:00:00 18.9 28 Norte 46 Norte 0 -- -- 92
2019-08-12 04:00:00 19 23 Nordeste 42 Nordeste 0 -- -- 92
2019-08-12 03:00:00 18.9 23 Nordeste 47 Norte 0 -- -- 90
2019-08-12 02:00:00 18.9 24 Norte 46 Nordeste 0 -- -- 89
2019-08-12 01:00:00 19.1 21 Norte 40 Norte 0 -- -- 91
2019-08-12 00:00:00 19.1 23 Norte 37 Norte 0 -- -- 91
2019-08-11 23:00:00 19.2 26 Norte 47 Norte 0 -- -- 90
2019-08-11 22:00:00 19.3 28 Norte 49 Nordeste 0 -- -- 89
2019-08-11 21:00:00 19.7 28 Norte 55 Nordeste 0 -- -- 87
2019-08-11 20:00:00 20.3 34 Nordeste 52 Nordeste 0 -- -- 83
2019-08-11 19:00:00 21.3 31 Nordeste 54 Norte 0 -- -- 79
2019-08-11 18:00:00 21.7 36 Norte 53 Norte 0 -- -- 77
2019-08-11 17:00:00 22.1 37 Nordeste 57 Nordeste 0 -- -- 74
2019-08-11 16:00:00 22.7 40 Nordeste 56 Norte 0 -- -- 70
2019-08-11 15:00:00 23.4 33 Nordeste 54 Nordeste 0 -- -- 69
2019-08-11 14:00:00 22.9 36 Nordeste 58 Nordeste 0 -- -- 69
2019-08-11 13:00:00 22.1 35 Nordeste 55 Norte 0 -- -- 73
2019-08-11 12:00:00 21.7 36 Norte 57 Norte 0 -- -- 75
2019-08-11 11:00:00 21.5 32 Nordeste 49 Norte 0 -- -- 77
2019-08-11 10:00:00 20.4 35 Norte 52 Norte 0 -- -- 84
2019-08-11 09:00:00 19.8 29 Norte 45 Norte 0 -- -- 89
2019-08-11 08:00:00 19.3 30 Norte 39 Norte 0 -- -- 93
2019-08-11 07:00:00 19.3 25 Norte 41 Norte 0 -- -- 94
2019-08-11 06:00:00 19.6 26 Norte 46 Nordeste 0 -- -- 93
2019-08-11 05:00:00 19.7 18 Norte 30 Norte 0 -- -- 95
2019-08-11 04:00:00 19.7 19 Norte 33 Norte 0 -- -- 95
2019-08-11 03:00:00 19.7 21 Norte 31 Norte 0 -- -- 94
2019-08-11 02:00:00 19.9 18 Norte 40 Nordeste 0 -- -- 94
2019-08-11 01:00:00 20 25 Nordeste 49 Norte 0 -- -- 93
2019-08-11 00:00:00 20.3 24 Nordeste 47 Nordeste 0 -- -- 93
2019-08-10 23:00:00 20.5 30 Nordeste 53 Nordeste 0 -- -- 94
2019-08-10 22:00:00 20.9 28 Norte 50 Norte 0 -- -- 94
2019-08-10 21:00:00 21.2 27 Norte 46 Norte 0 -- -- 93
2019-08-10 20:00:00 21.5 27 Norte 42 Norte 0 -- -- 91
2019-08-10 19:00:00 22.9 23 Norte 40 Norte 0 -- -- 82
2019-08-10 18:00:00 23.5 25 Norte 36 Norte 0 -- -- 77
2019-08-10 17:00:00 23.6 23 Norte 44 Nordeste 0 -- -- 77
2019-08-10 16:00:00 24 24 Nordeste 46 Norte 0 -- -- 75
2019-08-10 15:00:00 23.7 24 Nordeste 42 Norte 0 -- -- 76
2019-08-10 14:00:00 23.3 26 Nordeste 43 Norte 0 -- -- 78
2019-08-10 13:00:00 22.2 24 Nordeste 45 Nordeste 0 -- -- 81
2019-08-10 12:00:00 21.7 30 Nordeste 46 Nordeste 0 -- -- 84
2019-08-10 11:00:00 21.3 29 Nordeste 47 Norte 0 -- -- 86
2019-08-10 10:00:00 20.8 25 Nordeste 46 Nordeste 0 -- -- 87
2019-08-10 09:00:00 20.2 22 Nordeste 43 Norte 0 -- -- 93
2019-08-10 08:00:00 19.8 27 Nordeste 40 Nordeste 0 -- -- 94
2019-08-10 07:00:00 19.8 24 Norte 35 Norte 0 -- -- 95
2019-08-10 06:00:00 19.8 21 Norte 32 Norte 0 -- -- 94
2019-08-10 05:00:00 19.8 18 Norte 34 Norte 0 -- -- 94
2019-08-10 04:00:00 19.8 18 Norte 29 Norte 0 -- -- 94
2019-08-10 03:00:00 19.7 19 Nordeste 29 Norte 0 -- -- 93
2019-08-10 02:00:00 19.8 15 Nordeste 27 Norte 0 -- -- 92
2019-08-10 01:00:00 19.8 17 Nordeste 34 Nordeste 0 -- -- 91
2019-08-10 00:00:00 19.8 24 Nordeste 34 Norte 0 -- -- 92
2019-08-09 23:00:00 20 19 Nordeste 33 Norte 0 -- -- 89
2019-08-09 22:00:00 20.1 18 Norte 28 Norte 0 -- -- 90
2019-08-09 21:00:00 20.3 18 Norte 26 Norte 0 -- -- 88
2019-08-09 20:00:00 21.1 17 Norte 27 Norte 0 -- -- 84
2019-08-09 19:00:00 22 20 Norte 29 Norte 0 -- -- 80
2019-08-09 18:00:00 23.5 22 Norte 34 Nordeste 0 -- -- 73
2019-08-09 17:00:00 24.1 19 Nordeste 36 Norte 0 -- -- 68
2019-08-09 16:00:00 24 23 Norte 37 Norte 0 -- -- 70
2019-08-09 15:00:00 24.3 23 Norte 34 Norte 0 -- -- 69
2019-08-09 14:00:00 24.8 19 Nordeste 29 Norte 0 -- -- 66
2019-08-09 13:00:00 23.9 16 Nordeste 33 Nordeste 0 -- -- 69
2019-08-09 12:00:00 23 21 Nordeste 34 Nordeste 0 -- -- 73
2019-08-09 11:00:00 22.1 18 Nordeste 30 Norte 0 -- -- 76
2019-08-09 10:00:00 21 20 Norte 27 Norte 0 -- -- 81
2019-08-09 09:00:00 19.8 17 Nordeste 30 Nordeste 0 -- -- 87
2019-08-09 08:00:00 19 15 Nordeste 27 Norte 0 -- -- 90
2019-08-09 07:00:00 18.9 16 Nordeste 30 Norte 0 -- -- 90
2019-08-09 06:00:00 18.8 13 Nordeste 25 Nordeste 0 -- -- 90
2019-08-09 05:00:00 18.8 13 Nordeste 25 Norte 0 -- -- 90
2019-08-09 04:00:00 18.7 13 Nordeste 24 Nordeste 0 -- -- 90
2019-08-09 03:00:00 18.7 15 Nordeste 22 Norte 0 -- -- 89
2019-08-09 02:00:00 18.8 12 Nordeste 22 Norte 0 -- -- 90
2019-08-09 01:00:00 19.1 13 Nordeste 23 Norte 0 -- -- 88
2019-08-09 00:00:00 19.3 12 Nordeste 20 Nordeste 0 -- -- 88
2019-08-08 23:00:00 19.5 12 Nordeste 21 Nordeste 0 -- -- 89
2019-08-08 22:00:00 19.8 13 Nordeste 20 Norte 0 -- -- 88
2019-08-08 21:00:00 20.1 11 Norte 19 Norte 0 -- -- 85
2019-08-08 20:00:00 21.2 13 Norte 22 Norte 0 -- -- 80
2019-08-08 19:00:00 22 17 Norte 24 Norte 0 -- -- 77
2019-08-08 18:00:00 23 17 Norte 29 Norte 0 -- -- 72
2019-08-08 17:00:00 23.9 18 Norte 29 Norte 0 -- -- 68
2019-08-08 16:00:00 24.8 17 Norte 27 Norte 0 -- -- 65
2019-08-08 15:00:00 24.6 18 Norte 26 Norte 0 -- -- 66
2019-08-08 14:00:00 25.2 18 Nordeste 25 Norte 0 -- -- 64
2019-08-08 13:00:00 24.5 13 Nordeste 23 Nordeste 0 -- -- 65
2019-08-08 12:00:00 22.8 14 Nordeste 28 Norte 0 -- -- 71
2019-08-08 11:00:00 21.7 17 Norte 29 Norte 0 -- -- 76
2019-08-08 10:00:00 20.5 14 Norte 22 Nordeste 0 -- -- 80
2019-08-08 09:00:00 19.2 11 Nordeste 24 Norte 0 -- -- 86
2019-08-08 08:00:00 18.9 13 Norte 21 Nordeste 0 -- -- 87
2019-08-08 07:00:00 18.9 9 Norte 15 Este 0 -- -- 88
2019-08-08 06:00:00 19 10 Nordeste 24 Nordeste 0 -- -- 87
2019-08-08 05:00:00 19.2 12 Nordeste 27 Nordeste 0 -- -- 86
2019-08-08 04:00:00 19.3 17 Nordeste 27 Norte 0 -- -- 89
2019-08-08 03:00:00 19.5 13 Nordeste 23 Nordeste 0 -- -- 89
2019-08-08 02:00:00 19.5 13 Nordeste 27 Norte 0 -- -- 90
2019-08-08 01:00:00 19.4 17 Nordeste 30 Nordeste 0 -- -- 91
2019-08-08 00:00:00 19.6 13 Norte 26 Norte 0 -- -- 92
2019-08-07 23:00:00 19.7 14 Nordeste 28 Nordeste 0 -- -- 88
2019-08-07 22:00:00 19.8 18 Nordeste 35 Nordeste 0 -- -- 86
2019-08-07 21:00:00 20 17 Nordeste 35 Nordeste 0 -- -- 88
2019-08-07 20:00:00 20.7 17 Norte 28 Nordeste 0 -- -- 83
2019-08-07 19:00:00 21.5 21 Norte 32 Norte 0 -- -- 79
2019-08-07 18:00:00 22.5 22 Norte 34 Norte 0 -- -- 73
2019-08-07 17:00:00 23.1 22 Norte 36 Norte 0 -- -- 70
2019-08-07 16:00:00 23.4 24 Nordeste 34 Norte 0 -- -- 69
2019-08-07 15:00:00 23.7 24 Norte 37 Norte 0 -- -- 66
2019-08-07 14:00:00 22.5 24 Norte 37 Norte 0 -- -- 69
2019-08-07 13:00:00 21.6 23 Norte 44 Norte 0 -- -- 75
2019-08-07 12:00:00 21.5 23 Norte 40 Norte 0 -- -- 73
2019-08-07 11:00:00 21.1 24 Norte 35 Norte 0 -- -- 76
2019-08-07 10:00:00 20 21 Norte 32 Norte 0 -- -- 81
2019-08-07 09:00:00 19.5 20 Norte 33 Norte 0 -- -- 83
2019-08-07 08:00:00 19.1 18 Norte 32 Nordeste 0 -- -- 85
2019-08-07 07:00:00 19 19 Norte 32 Norte 0 -- -- 84
2019-08-07 06:00:00 19.1 18 Norte 28 Norte 0 -- -- 86
2019-08-07 05:00:00 19 16 Norte 30 Norte 0 -- -- 88
2019-08-07 04:00:00 19.1 20 Norte 32 Norte 0 -- -- 86
2019-08-07 03:00:00 19.3 21 Norte 41 Norte 0 -- -- 87
2019-08-07 02:00:00 19.2 22 Norte 43 Norte 0 -- -- 87
2019-08-07 01:00:00 19.4 23 Nordeste 37 Nordeste 0 -- -- 88
2019-08-07 00:00:00 19.4 25 Nordeste 49 Norte 0 -- -- 87
2019-08-06 23:00:00 19.3 23 Nordeste 42 Norte 0 -- -- 88
2019-08-06 22:00:00 19.3 19 Norte 30 Norte 0 -- -- 90
2019-08-06 21:00:00 19.4 22 Norte 35 Norte 0 -- -- 88
2019-08-06 20:00:00 20 24 Norte 39 Norte 0 -- -- 84
2019-08-06 19:00:00 20.4 24 Norte 36 Norte 0 -- -- 81
2019-08-06 18:00:00 20.8 25 Norte 35 Norte 0 -- -- 78
2019-08-06 17:00:00 20.9 24 Norte 37 Norte 0 -- -- 77
2019-08-06 16:00:00 21.2 25 Norte 38 Nordeste 0 -- -- 74
2019-08-06 15:00:00 22.2 25 Norte 44 Norte 0 -- -- 71
2019-08-06 14:00:00 21.7 26 Norte 38 Norte 0 -- -- 74
2019-08-06 13:00:00 21.4 27 Norte 40 Norte 0 -- -- 74
2019-08-06 12:00:00 20.7 26 Norte 36 Norte 0 -- -- 77
2019-08-06 11:00:00 20.3 20 Norte 36 Norte 0 -- -- 81
2019-08-06 10:00:00 19.6 22 Norte 36 Norte 0 -- -- 84
2019-08-06 09:00:00 19.4 23 Norte 36 Norte 0 -- -- 83
2019-08-06 08:00:00 19.1 22 Norte 38 Norte 0 -- -- 88
2019-08-06 07:00:00 19 22 Norte 40 Norte 0 -- -- 89
2019-08-06 06:00:00 19.1 23 Norte 40 Norte 0 -- -- 86
2019-08-06 05:00:00 19.2 24 Norte 39 Norte 0 -- -- 84
2019-08-06 04:00:00 19.2 24 Norte 48 Nordeste 0 -- -- 85
2019-08-06 03:00:00 19.2 23 Norte 41 Norte 0 -- -- 88
2019-08-06 02:00:00 19.2 25 Nordeste 46 Norte 0 -- -- 91
2019-08-06 01:00:00 19.3 25 Norte 39 Norte 0 -- -- 92
2019-08-06 00:00:00 19.3 25 Norte 39 Norte 0 -- -- 91
2019-08-05 23:00:00 19.4 26 Norte 40 Norte 0 -- -- 91
2019-08-05 22:00:00 19.5 25 Norte 40 Norte 0 -- -- 91
2019-08-05 21:00:00 19.7 25 Norte 40 Norte 0 -- -- 89
2019-08-05 20:00:00 20.1 28 Norte 43 Norte 0 -- -- 85
2019-08-05 19:00:00 20.8 28 Norte 44 Nordeste 0 -- -- 79
2019-08-05 18:00:00 21.6 31 Norte 44 Nordeste 0 -- -- 78
2019-08-05 17:00:00 22.1 31 Norte 46 Norte 0 -- -- 72
2019-08-05 16:00:00 22.2 32 Norte 46 Norte 0 -- -- 71
2019-08-05 15:00:00 22.2 29 Norte 40 Norte 0 -- -- 73
2019-08-05 14:00:00 22.2 29 Norte 42 Norte 0 -- -- 73
2019-08-05 13:00:00 22 29 Norte 41 Nordeste 0 -- -- 73
2019-08-05 12:00:00 21.8 31 Norte 49 Norte 0 -- -- 73
2019-08-05 11:00:00 21.5 28 Nordeste 44 Norte 0 -- -- 72
2019-08-05 10:00:00 20 27 Nordeste 39 Norte 0 -- -- 82
2019-08-05 09:00:00 19.6 26 Norte 44 Norte 0 -- -- 84
2019-08-05 08:00:00 19.1 19 Norte 44 Nordeste 0 -- -- 88
2019-08-05 07:00:00 19.2 22 Norte 45 Norte 0 -- -- 84
2019-08-05 06:00:00 19.2 24 Norte 40 Norte 0 -- -- 85
2019-08-05 05:00:00 19.2 19 Norte 40 Norte 0 -- -- 87
2019-08-05 04:00:00 19.2 20 Norte 39 Norte 0 -- -- 88
2019-08-05 03:00:00 19.3 23 Norte 41 Norte 0 -- -- 86
2019-08-05 02:00:00 19.3 22 Norte 40 Norte 0 -- -- 89
2019-08-05 01:00:00 19.4 23 Norte 40 Nordeste 0 -- -- 91
2019-08-05 00:00:00 19.5 21 Norte 36 Norte 0 -- -- 90
2019-08-04 23:00:00 19.4 23 Norte 36 Norte 0 -- -- 91
2019-08-04 22:00:00 19.7 24 Norte 36 Norte 0 -- -- 91
2019-08-04 21:00:00 19.9 26 Norte 39 Norte 0 -- -- 89
2019-08-04 20:00:00 20.6 24 Norte 41 Norte 0 -- -- 85
2019-08-04 19:00:00 21.2 28 Norte 40 Norte 0 -- -- 81
2019-08-04 18:00:00 22 27 Norte 44 Norte 0 -- -- 71
2019-08-04 17:00:00 22.6 26 Norte 43 Norte 0 -- -- 66
2019-08-04 16:00:00 22.5 30 Nordeste 46 Norte 0 -- -- 64
2019-08-04 15:00:00 22 29 Norte 41 Norte 0 -- -- 67
2019-08-04 14:00:00 21.9 26 Norte 41 Norte 0 -- -- 68
2019-08-04 13:00:00 21.2 27 Norte 39 Norte 0 -- -- 70
2019-08-04 12:00:00 20.8 26 Norte 40 Norte 0 -- -- 72
2019-08-04 11:00:00 20.5 25 Norte 38 Norte 0 -- -- 69
2019-08-04 10:00:00 20.3 24 Norte 38 Nordeste 0 -- -- 76
2019-08-04 09:00:00 19.8 20 Norte 33 Norte 0 -- -- 77
2019-08-04 08:00:00 19.2 23 Norte 37 Nordeste 0 -- -- 76
2019-08-04 07:00:00 19 18 Norte 31 Norte 0 -- -- 80
2019-08-04 06:00:00 18.9 20 Norte 35 Nordeste 0 -- -- 81
2019-08-04 05:00:00 18.8 21 Norte 34 Norte 0 -- -- 82
2019-08-04 04:00:00 18.7 20 Norte 34 Nordeste 0 -- -- 81
2019-08-04 03:00:00 18.7 18 Norte 33 Norte 0 -- -- 82
2019-08-04 02:00:00 18.5 19 Norte 30 Norte 0 -- -- 86
2019-08-04 01:00:00 18.7 19 Norte 30 Norte 0 -- -- 86
2019-08-04 00:00:00 18.8 21 Norte 35 Norte 0 -- -- 84
2019-08-03 23:00:00 18.9 19 Norte 32 Norte 0 -- -- 84
2019-08-03 22:00:00 19.1 22 Norte 33 Norte 0 -- -- 80
2019-08-03 21:00:00 19.3 22 Norte 47 Norte 0 -- -- 79
2019-08-03 20:00:00 19.7 25 Norte 37 Norte 0 -- -- 78
2019-08-03 19:00:00 20.2 25 Norte 41 Norte 0 -- -- 77
2019-08-03 18:00:00 20.5 26 Norte 40 Norte 0 -- -- 75
2019-08-03 17:00:00 21.7 27 Norte 42 Norte 0 -- -- 66
2019-08-03 16:00:00 21.6 26 Norte 42 Norte 0 -- -- 69
2019-08-03 15:00:00 21.4 29 Norte 42 Norte 0 -- -- 68
2019-08-03 14:00:00 21.6 27 Norte 40 Norte 0 -- -- 66
2019-08-03 13:00:00 20.5 25 Norte 36 Norte 0 -- -- 71
2019-08-03 12:00:00 20.4 24 Norte 37 Norte 0 -- -- 70
2019-08-03 11:00:00 20.1 24 Norte 36 Norte 0 -- -- 73
2019-08-03 10:00:00 19.2 24 Norte 35 Norte 0 -- -- 76
2019-08-03 09:00:00 18.6 19 Norte 33 Noroeste 0 -- -- 82
2019-08-03 08:00:00 18.3 19 Norte 31 Norte 0 -- -- 82
2019-08-03 07:00:00 18.3 22 Norte 32 Norte 0 -- -- 83
2019-08-03 06:00:00 18.3 19 Norte 32 Norte 0 -- -- 81
2019-08-03 05:00:00 18.3 21 Norte 31 Norte 0 -- -- 80
2019-08-03 04:00:00 18.4 18 Nordeste 30 Norte 0 -- -- 82
2019-08-03 03:00:00 18.5 16 Norte 30 Nordeste 0 -- -- 83
2019-08-03 02:00:00 18.6 18 Norte 33 Norte 0 -- -- 82
2019-08-03 01:00:00 18.8 22 Nordeste 38 Nordeste 0 -- -- 82
2019-08-03 00:00:00 18.9 23 Norte 41 Norte 0 -- -- 83
2019-08-02 23:00:00 18.9 22 Norte 37 Nordeste 0 -- -- 82
2019-08-02 22:00:00 19.1 28 Norte 41 Norte 0 -- -- 81
2019-08-02 21:00:00 19.4 29 Norte 42 Norte 0 -- -- 80
2019-08-02 20:00:00 19.8 29 Norte 40 Norte 0 -- -- 78
2019-08-02 19:00:00 20.4 26 Norte 43 Norte 0 -- -- 77
2019-08-02 18:00:00 21 31 Norte 44 Norte 0 -- -- 71
2019-08-02 17:00:00 21.3 28 Norte 41 Norte 0 -- -- 69
2019-08-02 16:00:00 22.2 27 Norte 40 Norte 0 -- -- 65
2019-08-02 15:00:00 22.2 24 Norte 36 Norte 0 -- -- 67
2019-08-02 14:00:00 21.7 22 Norte 34 Norte 0 -- -- 65
2019-08-02 13:00:00 21.7 23 Norte 38 Norte 0 -- -- 65
2019-08-02 12:00:00 21.3 26 Norte 39 Norte 0 -- -- 66
2019-08-02 11:00:00 20.2 24 Nordeste 36 Nordeste 0 -- -- 71
2019-08-02 10:00:00 19.4 22 Norte 36 Nordeste 0 -- -- 77
2019-08-02 09:00:00 19.1 19 Norte 33 Norte 0 -- -- 78
2019-08-02 08:00:00 18.6 23 Norte 36 Norte 0 -- -- 78
2019-08-02 07:00:00 18.5 19 Norte 33 Norte 0 -- -- 79
2019-08-02 06:00:00 18.4 19 Norte 36 Norte 0 -- -- 80
2019-08-02 05:00:00 18.6 21 Norte 34 Nordeste 0 -- -- 78
2019-08-02 04:00:00 18.7 23 Norte 43 Norte 0 -- -- 79
2019-08-02 03:00:00 18.9 23 Norte 41 Nordeste 0 -- -- 79
2019-08-02 02:00:00 18.7 25 Nordeste 40 Nordeste 0 -- -- 83
2019-08-02 01:00:00 18.7 21 Norte 38 Norte 0 -- -- 83
2019-08-02 00:00:00 18.7 22 Norte 40 Norte 0 -- -- 85
2019-08-01 23:00:00 19.1 28 Norte 40 Norte 0 -- -- 85
2019-08-01 22:00:00 19.2 27 Norte 39 Norte 0 -- -- 82
2019-08-01 21:00:00 19.3 24 Norte 41 Norte 0 -- -- 82
2019-08-01 20:00:00 19.9 25 Norte 37 Norte 0 -- -- 81
2019-08-01 19:00:00 20.7 26 Norte 37 Norte 0 -- -- 76
2019-08-01 18:00:00 21 26 Norte 39 Norte 0 -- -- 71
2019-08-01 17:00:00 21.1 27 Norte 41 Norte 0 -- -- 69
2019-08-01 16:00:00 21.9 27 Norte 41 Norte 0 -- -- 64
2019-08-01 15:00:00 22.1 26 Norte 38 Norte 0 -- -- 64
2019-08-01 14:00:00 22.2 24 Norte 38 Norte 0 -- -- 65
2019-08-01 13:00:00 21.4 22 Norte 40 Norte -- -- -- 69
2019-08-01 12:00:00 20.7 22 Norte 36 Norte 0 -- -- 72
2019-08-01 11:00:00 20.2 22 Norte 36 Norte 0 -- -- 72
2019-08-01 10:00:00 19.6 28 Norte 41 Norte 0 -- -- 74
2019-08-01 09:00:00 18.8 22 Norte 37 Norte 0 -- -- 79
2019-08-01 08:00:00 18.2 20 Norte 35 Norte 0 -- -- 80
2019-08-01 07:00:00 18.2 23 Norte 37 Norte 0 -- -- 80
2019-08-01 06:00:00 18.4 22 Norte 37 Norte 0 -- -- 79
2019-08-01 05:00:00 18.6 23 Norte 39 Norte 0 -- -- 78
2019-08-01 04:00:00 18.7 23 Norte 37 Norte 0 -- -- 78
2019-08-01 03:00:00 18.7 19 Norte 37 Norte 0 -- -- 80
2019-08-01 02:00:00 18.7 26 Norte 39 Norte 0 -- -- 79
2019-08-01 01:00:00 18.7 24 Norte 35 Norte 0 -- -- 78
2019-08-01 00:00:00 18.8 22 Norte 40 Norte 0 -- -- 78
2019-07-31 23:00:00 18.9 24 Norte 37 Norte 0 -- -- 77
2019-07-31 22:00:00 19.1 21 Norte 39 Norte 0 -- -- 77
2019-07-31 21:00:00 19.1 24 Norte 40 Norte 0 -- -- 78
2019-07-31 20:00:00 19.4 24 Norte 43 Norte 0 -- -- 75
2019-07-31 19:00:00 20.2 24 Norte 42 Norte 0 -- -- 73
2019-07-31 18:00:00 20.4 28 Norte 46 Norte 0 -- -- 74
2019-07-31 17:00:00 21.3 30 Norte 44 Norte 0 -- -- 68
2019-07-31 16:00:00 21.9 26 Norte 43 Noroeste 0 -- -- 66
2019-07-31 15:00:00 21.2 28 Norte 45 Norte 0 -- -- 69
2019-07-31 14:00:00 21.4 29 Norte 47 Norte 0 -- -- 68
2019-07-31 13:00:00 20.7 28 Norte 47 Norte 0 -- -- 71
2019-07-31 12:00:00 20.9 32 Norte 45 Norte 0 -- -- 67
2019-07-31 11:00:00 20.3 33 Norte 46 Norte 0 -- -- 71
2019-07-31 10:00:00 19.2 30 Norte 45 Norte 0 -- -- 76
2019-07-31 09:00:00 18.8 31 Norte 45 Norte 0 -- -- 74
2019-07-31 08:00:00 18.3 27 Norte 41 Norte 0 -- -- 80
2019-07-31 07:00:00 18.2 29 Norte 42 Norte 0 -- -- 80
2019-07-31 06:00:00 18.2 27 Norte 46 Norte 0 -- -- 81
2019-07-31 05:00:00 18.1 25 Norte 40 Norte 0 -- -- 82
2019-07-31 04:00:00 18.2 24 Norte 43 Norte 0 -- -- 80
2019-07-31 03:00:00 18.4 29 Norte 40 Norte 0 -- -- 79
2019-07-31 02:00:00 18.4 26 Norte 43 Norte 0 -- -- 81
2019-07-31 01:00:00 18.5 24 Norte 43 Norte 0 -- -- 82
2019-07-31 00:00:00 18.6 29 Norte 46 Norte 0 -- -- 78
2019-07-30 23:00:00 18.7 28 Norte 40 Norte 0 -- -- 79
2019-07-30 22:00:00 18.9 27 Norte 44 Norte 0 -- -- 80
2019-07-30 21:00:00 19 31 Norte 46 Norte 0 -- -- 79
2019-07-30 20:00:00 19.4 31 Norte 46 Norte 0 -- -- 77
2019-07-30 19:00:00 20.1 31 Norte 49 Norte 0 -- -- 75
2019-07-30 18:00:00 20.9 28 Norte 49 Norte 0 -- -- 71
2019-07-30 17:00:00 20.6 35 Norte 48 Norte 0 -- -- 73
2019-07-30 16:00:00 21.3 31 Norte 47 Norte 0 -- -- 69
2019-07-30 15:00:00 21.4 29 Norte 51 Norte 0 -- -- 71
2019-07-30 14:00:00 20.6 30 Norte 46 Norte 0 -- -- 73
2019-07-30 13:00:00 20 29 Norte 47 Norte 0 -- -- 78
2019-07-30 12:00:00 19.1 32 Norte 45 Norte 0 -- -- 82
2019-07-30 11:00:00 18.8 27 Norte 46 Norte 0 -- -- 86
2019-07-30 10:00:00 19 30 Norte 45 Norte 0 -- -- 81
2019-07-30 09:00:00 18.3 26 Norte 48 Norte 0 -- -- 86
2019-07-30 08:00:00 18.2 26 Norte 46 Norte 0 -- -- 87
2019-07-30 07:00:00 18.6 23 Norte 38 Norte 0 -- -- 91
2019-07-30 06:00:00 18.6 22 Norte 43 Norte 0 -- -- 89
2019-07-30 05:00:00 18.8 24 Norte 40 Norte 0 -- -- 90
2019-07-30 04:00:00 18.6 20 Norte 42 Norte 0 -- -- 90
2019-07-30 03:00:00 18.9 27 Norte 44 Norte 0 -- -- 90
2019-07-30 02:00:00 19.1 26 Norte 48 Norte 0 -- -- 93
2019-07-30 01:00:00 19.5 28 Norte 44 Norte 0 -- -- 93
2019-07-30 00:00:00 19.8 25 Norte 40 Norte 0 -- -- 92
2019-07-29 23:00:00 19.8 27 Norte 46 Norte 0 -- -- 91
2019-07-29 22:00:00 19.8 27 Norte 39 Norte 0 -- -- 91
2019-07-29 21:00:00 19.9 27 Norte 41 Norte 0 -- -- 89
2019-07-29 20:00:00 20 30 Norte 42 Norte 0 -- -- 85
2019-07-29 19:00:00 20.6 27 Norte 46 Norte 0 -- -- 80
2019-07-29 18:00:00 21.5 32 Norte 48 Norte 0 -- -- 73
2019-07-29 17:00:00 22.5 32 Norte 54 Norte 0 -- -- 67
2019-07-29 16:00:00 22.1 34 Norte 50 Norte 0 -- -- 67
2019-07-29 15:00:00 21.8 32 Norte 50 Norte 0 -- -- 73
2019-07-29 14:00:00 21.9 30 Norte 49 Norte 0 -- -- 67
2019-07-29 13:00:00 21.8 34 Norte 48 Norte 0 -- -- 67
2019-07-29 12:00:00 21.5 33 Norte 46 Nordeste 0 -- -- 69
2019-07-29 11:00:00 21.3 31 Norte 45 Norte 0 -- -- 66
2019-07-29 10:00:00 20.3 28 Norte 41 Norte 0 -- -- 68
2019-07-29 09:00:00 19.5 29 Norte 44 Norte 0 -- -- 70
2019-07-29 08:00:00 18.9 24 Norte 35 Norte 0 -- -- 79
2019-07-29 07:00:00 18.8 22 Norte 39 Norte 0 -- -- 77
2019-07-29 06:00:00 18.8 24 Norte 35 Norte 0 -- -- 79
2019-07-29 05:00:00 18.8 23 Norte 34 Norte 0 -- -- 83
2019-07-29 04:00:00 18.8 23 Norte 36 Norte 0 -- -- 84
2019-07-29 03:00:00 18.9 22 Norte 36 Norte 0 -- -- 85
2019-07-29 02:00:00 19.2 25 Norte 45 Norte 0 -- -- 79
2019-07-29 01:00:00 19.2 24 Norte 42 Norte 0 -- -- 79
2019-07-29 00:00:00 19.2 26 Norte 44 Norte 0 -- -- 78
2019-07-28 23:00:00 18.9 27 Norte 48 Norte 0 -- -- 82
2019-07-28 22:00:00 19.4 28 Norte 44 Norte 0 -- -- 82
2019-07-28 21:00:00 19.7 27 Norte 41 Norte 0 -- -- 79
2019-07-28 20:00:00 20.2 28 Norte 44 Norte 0 -- -- 78
2019-07-28 19:00:00 20.7 31 Norte 47 Norte 0 -- -- 78
2019-07-28 18:00:00 21 34 Norte 45 Norte 0 -- -- 79
2019-07-28 17:00:00 21.2 31 Norte 42 Norte 0 -- -- 76
2019-07-28 16:00:00 21.3 32 Norte 42 Norte 0 -- -- 80
2019-07-28 15:00:00 20.7 21 Norte 44 Norte 0 -- -- 85
2019-07-28 14:00:00 19.8 31 Norte 42 Norte 0 -- -- 90
2019-07-28 13:00:00 21.1 31 Norte 46 Norte 0 -- -- 84
2019-07-28 12:00:00 20.2 25 Norte 41 Norte 0 -- -- 92
2019-07-28 11:00:00 19.6 23 Norte 37 Norte 0 -- -- 96
2019-07-28 10:00:00 19.4 21 Norte 37 Norte 0 -- -- 96
2019-07-28 09:00:00 19.2 27 Norte 37 Norte 0 -- -- 96
2019-07-28 08:00:00 19.1 21 Norte 40 Norte 0 -- -- 95
2019-07-28 07:00:00 19 22 Norte 34 Norte 0 -- -- 95
2019-07-28 06:00:00 19.3 19 Norte 33 Norte 0 -- -- 94
2019-07-28 05:00:00 19.5 18 Norte 31 Norte 0 -- -- 93
2019-07-28 04:00:00 19.3 20 Norte 33 Norte 0 -- -- 94
2019-07-28 03:00:00 19.2 20 Norte 30 Norte 0 -- -- 94
2019-07-28 02:00:00 19.3 19 Norte 33 Norte 0 -- -- 92
2019-07-28 01:00:00 19.3 19 Norte 35 Norte 0 -- -- 91
2019-07-28 00:00:00 19.4 22 Norte 34 Nordeste 0 -- -- 88
2019-07-27 23:00:00 19.4 21 Norte 36 Norte 0 -- -- 90
2019-07-27 22:00:00 19.4 21 Norte 35 Norte 0 -- -- 87
2019-07-26 11:00:00 -- -- -- -- -- -- -- -- --
2019-07-26 10:00:00 -- -- -- -- -- -- -- -- --
2019-07-26 09:00:00 -- -- -- -- -- -- -- -- --
2019-07-26 08:00:00 19 26 Nordeste 43 Norte 0 -- -- 92
2019-07-26 07:00:00 19.1 25 Norte 45 Nordeste 0 -- -- 93
2019-07-26 06:00:00 19 23 Norte 38 Norte 0 -- -- 93
2019-07-26 05:00:00 19.1 17 Norte 33 Norte 0 -- -- 94
2019-07-26 04:00:00 19 19 Norte 35 Nordeste 0 -- -- 93
2019-07-26 03:00:00 19.1 23 Nordeste 37 Norte 0 -- -- 92
2019-07-26 02:00:00 19.2 20 Nordeste 39 Norte 0 -- -- 92
2019-07-26 01:00:00 19.2 22 Nordeste 38 Norte 0 -- -- 93
2019-07-26 00:00:00 19.2 22 Nordeste 38 Nordeste 0 -- -- 91
2019-07-25 23:00:00 19.2 24 Nordeste 41 Norte 0 -- -- 91
2019-07-25 22:00:00 19.5 25 Norte 38 Norte 0 -- -- 91
2019-07-25 21:00:00 19.6 23 Norte 33 Norte 0 -- -- 89
2019-07-25 20:00:00 20.4 22 Norte 33 Norte 0 -- -- 85
2019-07-25 19:00:00 21.2 22 Norte 34 Norte 0 -- -- 81
2019-07-25 18:00:00 22.1 22 Norte 38 Norte 0 -- -- 77
2019-07-25 17:00:00 22.8 27 Nordeste 41 Norte 0 -- -- 71
2019-07-25 16:00:00 22.9 27 Nordeste 43 Norte 0 -- -- 71
2019-07-25 15:00:00 22.9 28 Norte 40 Norte 0 -- -- 73
2019-07-25 14:00:00 23 26 Norte 36 Nordeste 0 -- -- 73
2019-07-25 13:00:00 22.9 26 Norte 39 Nordeste 0 -- -- 70
2019-07-25 12:00:00 22.4 29 Norte 38 Norte 0 -- -- 73
2019-07-25 11:00:00 21.4 26 Norte 37 Nordeste 0 -- -- 78
2019-07-25 10:00:00 20.2 24 Norte 30 Norte 0 -- -- 84
2019-07-25 09:00:00 19.1 20 Norte 28 Norte 0 -- -- 92
2019-07-25 08:00:00 18.4 17 Norte 28 Norte 0 -- -- 95
2019-07-25 07:00:00 18.4 19 Norte 32 Norte 0 -- -- 95
2019-07-25 06:00:00 18.4 19 Norte 27 Norte 0 -- -- 95
2019-07-25 05:00:00 18.5 19 Norte 28 Nordeste 0 -- -- 94
2019-07-25 04:00:00 18.7 17 Norte 31 Norte 0 -- -- 95
2019-07-25 03:00:00 18.7 16 Norte 37 Norte 0 -- -- 94
2019-07-25 02:00:00 18.7 21 Norte 32 Norte 0 -- -- 93
2019-07-25 01:00:00 18.9 21 Nordeste 37 Nordeste 0 -- -- 94
2019-07-25 00:00:00 19 20 Norte 29 Norte 0 -- -- 94
2019-07-24 23:00:00 19.2 20 Norte 31 Norte 0 -- -- 92
2019-07-24 22:00:00 19.4 18 Norte 30 Nordeste 0 -- -- 91
2019-07-24 21:00:00 19.5 21 Norte 30 Norte 0 -- -- 88
2019-07-24 20:00:00 19.8 20 Nordeste 33 Norte 0 -- -- 87
2019-07-24 19:00:00 20.1 23 Norte 38 Nordeste 0 -- -- 87
2019-07-24 18:00:00 20.5 26 Norte 37 Nordeste 0 -- -- 85
2019-07-24 17:00:00 20.9 25 Norte 39 Nordeste 0 -- -- 82
2019-07-24 16:00:00 21.7 25 Norte 36 Norte 0 -- -- 79
2019-07-24 15:00:00 21.1 27 Norte 41 Norte 0 -- -- 80
2019-07-24 14:00:00 22.1 24 Norte 36 Norte 0 -- -- 74
2019-07-24 13:00:00 22.3 24 Norte 36 Norte 0 -- -- 73
2019-07-24 12:00:00 20.7 23 Norte 33 Norte 0 -- -- 80
2019-07-24 11:00:00 20.4 22 Norte 35 Norte 0 -- -- 80
2019-07-24 10:00:00 19.7 22 Nordeste 32 Norte 0 -- -- 82
2019-07-24 09:00:00 18.9 20 Norte 32 Norte 0 -- -- 84
2019-07-24 08:00:00 18.2 21 Norte 32 Norte 0 -- -- 87
2019-07-24 07:00:00 18 19 Norte 45 Nordeste 0 -- -- 88
2019-07-24 06:00:00 18.1 17 Norte 33 Nordeste 0 -- -- 91
2019-07-24 05:00:00 18.3 19 Norte 33 Norte 0 -- -- 93
2019-07-24 04:00:00 18.2 22 Nordeste 33 Nordeste 0 -- -- 94
2019-07-24 03:00:00 18.4 21 Nordeste 39 Norte 0 -- -- 94
2019-07-24 02:00:00 18.4 23 Norte 33 Nordeste 0 -- -- 93
2019-07-24 01:00:00 18.5 25 Norte 38 Norte -- -- -- 91
2019-07-24 00:00:00 18.6 22 Norte 36 Norte 0 -- -- 89
2019-07-23 23:00:00 18.9 23 Norte 36 Norte 0 -- -- 87
2019-07-23 22:00:00 18.9 22 Norte 35 Norte 0 -- -- 83
2019-07-23 21:00:00 19.1 23 Norte 37 Norte 0 -- -- 83
2019-07-23 20:00:00 19.4 27 Norte 38 Norte 0 -- -- 82
2019-07-23 19:00:00 19.7 26 Norte 37 Norte 0 -- -- 80
2019-07-23 18:00:00 20.3 26 Norte 37 Norte 0 -- -- 79
2019-07-23 17:00:00 21.1 25 Norte 41 Norte 0 -- -- 74
2019-07-23 16:00:00 21.7 24 Norte 36 Norte 0 -- -- 71
2019-07-23 15:00:00 22.2 24 Norte 39 Nordeste 0 -- -- 70
2019-07-23 14:00:00 21.3 23 Norte 36 Norte 0 -- -- 74
2019-07-23 13:00:00 21 23 Norte 36 Norte 0 -- -- 73
2019-07-23 12:00:00 21 23 Norte 36 Norte 0 -- -- 72
2019-07-23 11:00:00 19.2 21 Norte 33 Norte 0 -- -- 80
2019-07-23 10:00:00 18.6 21 Norte 35 Nordeste 0 -- -- 84
2019-07-23 09:00:00 18.2 21 Norte 33 Norte 0 -- -- 85
2019-07-23 08:00:00 18 17 Norte 32 Norte 0 -- -- 86
2019-07-23 07:00:00 17.8 19 Norte 32 Norte 0 -- -- 86
2019-07-23 06:00:00 17.8 18 Norte 32 Norte 0 -- -- 86
2019-07-23 05:00:00 18.1 19 Norte 36 Norte 0 -- -- 86
2019-07-23 04:00:00 18.1 21 Norte 33 Norte 0 -- -- 85
2019-07-23 03:00:00 18.3 22 Norte 32 Norte 0 -- -- 86
2019-07-23 02:00:00 18.4 21 Norte 32 Norte 0 -- -- 85
2019-07-23 01:00:00 18.3 23 Norte 37 Norte 0 -- -- 85
2019-07-23 00:00:00 18.5 23 Norte 35 Norte 0 -- -- 85
2019-07-22 23:00:00 18.7 21 Norte 34 Norte 0 -- -- 84
2019-07-22 22:00:00 18.9 21 Norte 32 Norte 0 -- -- 84
2019-07-22 21:00:00 19 24 Norte 35 Norte 0 -- -- 84
2019-07-22 20:00:00 19.4 23 Norte 34 Norte 0 -- -- 82
2019-07-22 19:00:00 19.8 23 Norte 37 Norte 0 -- -- 80
2019-07-22 18:00:00 20.4 25 Norte 37 Norte 0 -- -- 77
2019-07-22 17:00:00 21 22 Norte 38 Norte 0 -- -- 74
2019-07-22 16:00:00 21.3 23 Norte 38 Norte 0 -- -- 72
2019-07-22 15:00:00 21.6 25 Norte 35 Norte 0 -- -- 71
2019-07-22 14:00:00 21.1 25 Norte 39 Nordeste 0 -- -- 72
2019-07-22 13:00:00 20.8 27 Norte 39 Nordeste 0 -- -- 73
2019-07-22 12:00:00 20.7 25 Norte 36 Norte 0 -- -- 73
2019-07-22 11:00:00 19.3 24 Norte 36 Norte 0 -- -- 82
2019-07-22 10:00:00 18.9 23 Norte 40 Nordeste 0 -- -- 82
2019-07-22 09:00:00 18.5 24 Norte 35 Norte 0 -- -- 86
2019-07-22 08:00:00 18.2 22 Norte 34 Nordeste 0 -- -- 87
2019-07-22 07:00:00 18.1 22 Norte 34 Nordeste 0 -- -- 87
2019-07-22 06:00:00 18.2 21 Norte 32 Norte 0 -- -- 87
2019-07-22 05:00:00 18.3 21 Norte 34 Norte 0 -- -- 88
2019-07-22 04:00:00 18.3 20 Norte 33 Norte 0 -- -- 88
2019-07-22 03:00:00 18.4 19 Nordeste 35 Nordeste 0 -- -- 88
2019-07-22 02:00:00 18.5 21 Nordeste 38 Nordeste 0 -- -- 87
2019-07-22 01:00:00 18.6 22 Nordeste 36 Nordeste 0 -- -- 87
2019-07-22 00:00:00 18.7 23 Norte 41 Norte 0 -- -- 87
2019-07-21 23:00:00 19 24 Norte 35 Norte 0 -- -- 85
2019-07-21 22:00:00 19.2 24 Norte 37 Norte 0 -- -- 85
2019-07-21 21:00:00 19.5 21 Norte 37 Norte 0 -- -- 83
2019-07-21 20:00:00 19.9 25 Norte 37 Norte 0 -- -- 80
2019-07-21 19:00:00 20.6 25 Norte 38 Norte 0 -- -- 78
2019-07-21 18:00:00 21.1 30 Nordeste 43 Nordeste 0 -- -- 74
2019-07-21 17:00:00 21.7 28 Norte 52 Nordeste 0 -- -- 72
2019-07-21 16:00:00 22.7 28 Norte 46 Nordeste 0 -- -- 68
2019-07-21 15:00:00 22.5 28 Norte 43 Norte 0 -- -- 70
2019-07-21 14:00:00 21.8 28 Norte 48 Nordeste 0 -- -- 73
2019-07-21 13:00:00 22.1 32 Norte 73 Nordeste 0 -- -- 71
2019-07-21 12:00:00 20.7 29 Nordeste 46 Nordeste 0 -- -- 78
2019-07-21 11:00:00 19.9 30 Nordeste 44 Norte 0 -- -- 80
2019-07-21 10:00:00 19.5 24 Nordeste 39 Norte 0 -- -- 82
2019-07-21 09:00:00 18.8 25 Nordeste 43 Nordeste 0 -- -- 84
2019-07-21 08:00:00 18.6 26 Nordeste 48 Nordeste 0 -- -- 88
2019-07-21 07:00:00 18.6 23 Nordeste 39 Norte 0 -- -- 89
2019-07-21 06:00:00 18.6 26 Nordeste 39 Norte 0 -- -- 88
2019-07-21 05:00:00 18.6 22 Nordeste 36 Norte 0 -- -- 86
2019-07-21 04:00:00 18.7 23 Nordeste 43 Nordeste 0 -- -- 91
2019-07-21 03:00:00 18.6 28 Nordeste 45 Norte 0 -- -- 92
2019-07-21 02:00:00 19 24 Nordeste 50 Nordeste 0 -- -- 89
2019-07-21 01:00:00 19.3 25 Nordeste 44 Nordeste -- -- -- 86
2019-07-21 00:00:00 19.4 24 Nordeste 37 Nordeste 0 -- -- 84
2019-07-20 23:00:00 19.4 21 Nordeste 45 Nordeste 0 -- -- 87
2019-07-20 22:00:00 19.5 21 Nordeste 39 Norte 0 -- -- 84
2019-07-20 21:00:00 19.5 26 Norte 42 Norte 0 -- -- 83
2019-07-20 20:00:00 19.9 26 Norte 42 Norte 0 -- -- 82
2019-07-20 19:00:00 20.3 30 Norte 42 Norte 0 -- -- 77
2019-07-20 18:00:00 21 23 Norte 37 Norte 0 -- -- 79
2019-07-20 17:00:00 21.4 22 Norte 34 Norte 0 -- -- 76
2019-07-20 16:00:00 21.9 25 Norte 35 Norte 0 -- -- 72
2019-07-20 15:00:00 21.3 24 Norte 33 Nordeste 0 -- -- 77
2019-07-20 14:00:00 20 18 Norte 31 Norte 0 -- -- 82
2019-07-20 13:00:00 19.8 20 Norte 33 Norte 0 -- -- 83
2019-07-20 12:00:00 19.6 21 Norte 32 Norte 0 -- -- 84
2019-07-20 11:00:00 19 18 Norte 35 Nordeste 0 -- -- 83
2019-07-20 10:00:00 18.8 19 Norte 32 Norte 0 -- -- 87
2019-07-20 09:00:00 18.6 22 Norte 33 Nordeste 0 -- -- 89
2019-07-20 08:00:00 18.3 17 Norte 32 Norte 0 -- -- 86
2019-07-20 07:00:00 18.1 21 Norte 33 Norte 0 -- -- 89
2019-07-20 06:00:00 18 18 Norte 33 Norte 0 -- -- 87
2019-07-20 05:00:00 18.3 19 Norte 32 Nordeste 0 -- -- 92
2019-07-20 04:00:00 18.2 17 Norte 33 Norte 0 -- -- 94
2019-07-20 03:00:00 17.9 27 Norte 40 Norte 0 -- -- 95
2019-07-20 02:00:00 18 17 Norte 33 Norte 0 -- -- 94
2019-07-20 01:00:00 18.3 17 Norte 36 Norte 0 -- -- 94
2019-07-20 00:00:00 18.2 17 Norte 37 Norte 0 -- -- 95
2019-07-19 23:00:00 18.8 22 Nordeste 48 Nordeste 0 -- -- 89
2019-07-19 22:00:00 19.3 20 Norte 35 Norte 0 -- -- 89
2019-07-19 21:00:00 19.3 27 Norte 36 Norte 0 -- -- 90
2019-07-19 20:00:00 19.6 27 Norte 39 Norte 0 -- -- 88
2019-07-19 19:00:00 20.1 24 Norte 41 Norte 0 -- -- 84
2019-07-19 18:00:00 20.5 26 Norte 40 Norte 0 -- -- 81
2019-07-19 17:00:00 21.2 20 Norte 41 Norte 0 -- -- 77
2019-07-19 16:00:00 21.5 23 Norte 34 Norte 0 -- -- 73
2019-07-19 15:00:00 21.4 20 Norte 39 Noroeste 0 -- -- 71
2019-07-19 14:00:00 21.3 23 Norte 39 Norte 0 -- -- 70
2019-07-19 13:00:00 20.7 26 Norte 37 Norte 0 -- -- 72
2019-07-19 12:00:00 19.7 23 Norte 37 Norte 0 -- -- 77
2019-07-19 11:00:00 19.1 22 Norte 36 Noroeste 0 -- -- 78
2019-07-19 10:00:00 18.7 20 Norte 34 Noroeste 0 -- -- 79
2019-07-19 09:00:00 18.4 23 Norte 41 Norte 0 -- -- 79
2019-07-19 08:00:00 18.3 24 Norte 38 Norte 0 -- -- 81
2019-07-19 07:00:00 18.2 22 Norte 34 Norte 0 -- -- 81
2019-07-19 06:00:00 18.3 19 Norte 40 Norte 0 -- -- 80
2019-07-19 05:00:00 18.2 26 Norte 41 Norte 0 -- -- 79
2019-07-19 04:00:00 18.3 24 Norte 35 Norte 0 -- -- 80
2019-07-19 03:00:00 18.4 25 Norte 40 Norte 0 -- -- 79
2019-07-19 02:00:00 18.4 22 Norte 42 Norte 0 -- -- 79
2019-07-19 01:00:00 18.4 26 Norte 42 Norte 0 -- -- 79
2019-07-19 00:00:00 18.7 21 Norte 39 Norte 0 -- -- 77